Time;durP1;ratioP1;P1;durP2;ratioP2;P2;SDS_P1;SDS_P2;PMS_P1;PMS_P2;Temp;Humidity;BMP_temperature;BMP_pressure;BME280_temperature;BME280_humidity;BME280_pressure;Samples;Min_cycle;Max_cycle;Signal;HPM_P1;HPM_P2
2022/07/05 00:01:00;;;;;;;3.07;2.73;;;16.70;99.90;;;;;;5114050;28;20465;-70
2022/07/05 00:03:27;;;;;;;8.80;2.30;;;16.70;99.90;;;;;;5114070;28;20460;-71
2022/07/05 00:05:58;;;;;;;3.17;2.87;;;16.70;99.90;;;;;;5114144;28;21009;-70
2022/07/05 00:08:25;;;;;;;3.20;2.90;;;16.70;99.90;;;;;;5113761;28;20477;-70
2022/07/05 00:10:52;;;;;;;3.40;2.90;;;16.70;99.90;;;;;;5113308;28;20453;-69
2022/07/05 00:13:19;;;;;;;2.87;2.67;;;16.70;99.90;;;;;;5112879;28;20866;-70
2022/07/05 00:15:45;;;;;;;3.30;2.73;;;16.70;99.90;;;;;;5113422;28;20850;-70
2022/07/05 00:18:12;;;;;;;4.20;2.80;;;16.70;99.90;;;;;;5113053;28;20456;-69
2022/07/05 00:20:39;;;;;;;4.07;3.43;;;16.60;99.90;;;;;;5113032;28;20457;-70
2022/07/05 00:23:07;;;;;;;3.30;2.77;;;16.60;99.90;;;;;;5113142;28;20468;-70
2022/07/05 00:25:33;;;;;;;3.00;2.70;;;16.60;99.90;;;;;;5112574;28;20473;-71
2022/07/05 00:28:00;;;;;;;3.13;2.90;;;16.50;99.90;;;;;;5112301;28;21035;-71
2022/07/05 00:30:27;;;;;;;4.60;3.20;;;16.50;99.90;;;;;;5111748;28;21025;-70
2022/07/05 00:32:54;;;;;;;3.50;3.20;;;16.50;99.90;;;;;;5112316;28;20464;-70
2022/07/05 00:35:20;;;;;;;3.03;2.73;;;16.40;99.90;;;;;;5112100;28;20476;-70
2022/07/05 00:37:47;;;;;;;3.60;2.90;;;16.50;99.90;;;;;;5112223;28;20453;-70
2022/07/05 00:40:15;;;;;;;3.17;2.87;;;16.40;99.90;;;;;;5111225;28;20559;-69
2022/07/05 00:42:42;;;;;;;3.00;2.80;;;16.40;99.90;;;;;;5111912;28;20534;-71
2022/07/05 00:45:09;;;;;;;2.80;2.60;;;16.40;99.90;;;;;;5111960;28;20484;-70
2022/07/05 00:47:36;;;;;;;3.27;2.57;;;16.40;99.90;;;;;;5111789;28;20481;-69
2022/07/05 00:50:04;;;;;;;3.40;3.10;;;16.40;99.90;;;;;;5111279;28;20456;-70
2022/07/05 00:52:31;;;;;;;4.80;2.87;;;16.40;99.90;;;;;;5112134;28;20467;-69
2022/07/05 00:54:58;;;;;;;2.87;2.63;;;16.40;99.90;;;;;;5113481;28;20480;-70
2022/07/05 00:57:26;;;;;;;2.83;2.63;;;16.30;99.90;;;;;;5111472;28;20812;-70
2022/07/05 00:59:52;;;;;;;3.67;3.37;;;16.30;99.90;;;;;;5110863;28;20460;-70
2022/07/05 01:02:22;;;;;;;2.63;2.43;;;16.30;99.90;;;;;;5110810;28;20469;-68
2022/07/05 01:04:50;;;;;;;2.77;2.57;;;16.30;99.90;;;;;;5111238;28;20473;-74
2022/07/05 01:07:19;;;;;;;5.70;2.83;;;16.20;99.90;;;;;;5115352;28;20489;-71
2022/07/05 01:09:45;;;;;;;2.60;2.27;;;16.20;99.90;;;;;;5115073;28;20467;-71
2022/07/05 01:12:12;;;;;;;3.90;2.20;;;16.10;99.90;;;;;;5117334;28;20456;-71
2022/07/05 01:14:42;;;;;;;3.43;2.53;;;16.10;99.90;;;;;;5118923;28;20476;-71
2022/07/05 01:17:09;;;;;;;5.03;2.70;;;16.00;99.90;;;;;;5118114;27;20463;-71
2022/07/05 01:19:36;;;;;;;2.90;2.47;;;16.00;99.90;;;;;;5117877;28;20461;-71
2022/07/05 01:22:04;;;;;;;2.77;2.57;;;15.90;99.90;;;;;;5186837;22;20456;-69
2022/07/05 01:24:32;;;;;;;3.20;2.87;;;15.90;99.90;;;;;;5100703;28;20468;-70
2022/07/05 01:26:59;;;;;;;2.90;2.70;;;15.80;99.90;;;;;;5113707;28;20480;-70
2022/07/05 01:29:27;;;;;;;3.00;2.80;;;15.80;99.90;;;;;;5113346;28;20452;-70
2022/07/05 01:31:53;;;;;;;2.77;2.57;;;15.70;99.90;;;;;;5114171;28;20460;-70
2022/07/05 01:34:20;;;;;;;2.60;2.40;;;15.70;99.90;;;;;;5113937;28;20489;-71
2022/07/05 01:36:47;;;;;;;2.70;2.50;;;15.70;99.90;;;;;;5114059;28;20461;-70
2022/07/05 01:39:15;;;;;;;2.10;1.90;;;15.70;99.90;;;;;;5113283;28;20839;-70
2022/07/05 01:41:43;;;;;;;2.50;2.30;;;15.60;99.90;;;;;;5113704;28;20461;-70
2022/07/05 01:44:11;;;;;;;2.90;2.43;;;15.60;99.90;;;;;;5113343;28;20487;-69
2022/07/05 01:46:39;;;;;;;2.60;2.33;;;15.60;99.90;;;;;;5113673;28;20962;-69
2022/07/05 01:49:09;;;;;;;2.90;2.37;;;15.50;99.90;;;;;;5113187;28;20484;-71
2022/07/05 01:51:41;;;;;;;2.30;2.10;;;15.50;99.90;;;;;;5113248;28;20464;-71
2022/07/05 01:54:08;;;;;;;3.00;2.60;;;15.50;99.90;;;;;;5113306;28;20489;-71
2022/07/05 01:56:34;;;;;;;4.10;2.33;;;15.50;99.90;;;;;;5113528;28;20460;-70
2022/07/05 01:59:02;;;;;;;3.60;2.50;;;15.40;99.90;;;;;;5113281;28;20457;-69
2022/07/05 02:01:34;;;;;;;3.10;2.33;;;15.30;99.90;;;;;;5112793;28;20808;-70
2022/07/05 02:04:00;;;;;;;2.30;2.10;;;15.30;99.90;;;;;;5113164;28;20481;-70
2022/07/05 02:06:27;;;;;;;2.90;2.30;;;15.30;99.90;;;;;;5113188;28;20485;-70
2022/07/05 02:08:54;;;;;;;2.63;2.40;;;15.20;99.90;;;;;;5113018;28;20492;-70
2022/07/05 02:11:21;;;;;;;2.63;2.40;;;15.20;99.90;;;;;;5112442;28;20457;-71
2022/07/05 02:13:47;;;;;;;2.27;2.07;;;15.20;99.90;;;;;;5113167;28;20457;-70
2022/07/05 02:16:15;;;;;;;2.50;2.30;;;15.20;99.90;;;;;;5112873;28;20464;-69
2022/07/05 02:18:42;;;;;;;2.70;2.50;;;15.20;99.90;;;;;;5113027;28;20459;-71
2022/07/05 02:21:09;;;;;;;3.80;2.57;;;15.10;99.90;;;;;;5112307;28;20461;-71
2022/07/05 02:23:35;;;;;;;3.40;2.70;;;15.10;99.90;;;;;;5112884;28;20464;-70
2022/07/05 02:26:02;;;;;;;2.50;2.30;;;15.10;99.90;;;;;;5112697;28;20520;-70
2022/07/05 02:28:29;;;;;;;2.47;2.10;;;15.00;99.90;;;;;;5112485;28;20480;-71
2022/07/05 02:30:55;;;;;;;2.53;2.30;;;15.00;99.90;;;;;;5112375;28;20468;-70
2022/07/05 02:33:23;;;;;;;3.67;2.43;;;15.00;99.90;;;;;;5112532;28;20465;-70
2022/07/05 02:35:50;;;;;;;2.43;2.23;;;14.90;99.90;;;;;;5112748;28;20472;-70
2022/07/05 02:38:17;;;;;;;3.40;2.20;;;14.90;99.90;;;;;;5112295;28;20459;-70
2022/07/05 02:40:43;;;;;;;3.07;2.40;;;14.90;99.90;;;;;;5112074;28;20503;-70
2022/07/05 02:43:10;;;;;;;2.57;2.37;;;14.80;99.90;;;;;;5112281;28;20848;-70
2022/07/05 02:45:37;;;;;;;7.10;2.50;;;14.80;99.90;;;;;;5112595;28;20480;-70
2022/07/05 02:48:04;;;;;;;2.63;2.43;;;14.80;99.90;;;;;;5112221;28;20488;-70
2022/07/05 02:50:32;;;;;;;2.63;2.37;;;14.80;99.90;;;;;;5111784;28;20876;-69
2022/07/05 02:52:59;;;;;;;3.17;2.53;;;14.80;99.90;;;;;;5112403;28;20464;-69
2022/07/05 02:55:25;;;;;;;2.93;2.63;;;14.70;99.90;;;;;;5111925;28;20489;-70
2022/07/05 02:57:52;;;;;;;2.93;2.73;;;14.70;99.90;;;;;;5112133;28;20464;-68
2022/07/05 03:00:19;;;;;;;4.10;2.07;;;14.70;99.90;;;;;;5111427;28;20986;-69
2022/07/05 03:02:45;;;;;;;2.83;2.00;;;14.60;99.90;;;;;;5112300;28;20931;-69
2022/07/05 03:05:12;;;;;;;3.30;2.47;;;14.60;99.90;;;;;;5111964;28;20484;-69
2022/07/05 03:07:40;;;;;;;5.40;2.70;;;14.60;99.90;;;;;;5112008;28;20991;-70
2022/07/05 03:10:07;;;;;;;2.80;2.60;;;14.60;99.90;;;;;;5111242;28;20866;-69
2022/07/05 03:12:34;;;;;;;2.40;2.00;;;14.50;99.90;;;;;;5111837;28;20460;-69
2022/07/05 03:15:01;;;;;;;2.80;2.43;;;14.50;99.90;;;;;;5112187;28;20481;-69
2022/07/05 03:17:27;;;;;;;2.50;2.30;;;14.50;99.90;;;;;;5111878;28;20465;-69
2022/07/05 03:19:54;;;;;;;2.50;2.30;;;14.50;99.90;;;;;;5111148;28;20464;-68
2022/07/05 03:22:21;;;;;;;3.00;2.70;;;14.40;99.90;;;;;;5111484;28;20468;-70
2022/07/05 03:24:49;;;;;;;3.23;2.40;;;14.40;99.90;;;;;;5111699;28;20476;-69
2022/07/05 03:27:16;;;;;;;3.70;2.77;;;14.40;99.90;;;;;;5111523;28;20456;-69
2022/07/05 03:29:43;;;;;;;3.47;2.33;;;14.40;99.90;;;;;;5108298;28;20488;-69
2022/07/05 03:32:09;;;;;;;3.00;2.63;;;14.40;99.90;;;;;;5091157;28;20458;-69
2022/07/05 03:34:38;;;;;;;2.47;2.27;;;14.30;99.90;;;;;;5090055;28;20478;-68
2022/07/05 03:37:05;;;;;;;3.13;2.83;;;14.30;99.90;;;;;;5090670;28;20458;-68
2022/07/05 03:39:31;;;;;;;3.13;2.50;;;14.30;99.90;;;;;;5090116;28;20445;-68
2022/07/05 03:41:59;;;;;;;2.70;2.50;;;14.30;99.90;;;;;;5090988;28;20944;-68
2022/07/05 03:44:27;;;;;;;2.30;2.10;;;14.30;99.90;;;;;;5090560;28;20480;-70
2022/07/05 03:46:53;;;;;;;2.33;2.13;;;14.30;99.90;;;;;;5089758;28;20488;-69
2022/07/05 03:49:20;;;;;;;2.67;2.47;;;14.20;99.90;;;;;;5086364;28;20482;-69
2022/07/05 03:51:47;;;;;;;2.60;2.40;;;14.20;99.90;;;;;;5091052;28;20454;-69
2022/07/05 03:54:13;;;;;;;2.83;2.53;;;14.20;99.90;;;;;;5089760;28;20452;-70
2022/07/05 03:56:40;;;;;;;2.80;2.60;;;14.20;99.90;;;;;;5087699;28;20203;-70
2022/07/05 03:59:08;;;;;;;3.33;2.27;;;14.20;99.90;;;;;;5089902;28;20978;-70
2022/07/05 04:01:35;;;;;;;3.30;2.20;;;14.20;99.90;;;;;;5153169;22;20490;-72
2022/07/05 04:04:01;;;;;;;2.40;2.20;;;14.20;99.90;;;;;;5070055;28;20513;-72
2022/07/05 04:06:28;;;;;;;4.80;2.40;;;14.20;99.90;;;;;;5070052;28;20455;-71
2022/07/05 04:08:55;;;;;;;2.70;2.50;;;14.20;99.90;;;;;;5069865;28;20524;-71
2022/07/05 04:11:22;;;;;;;3.70;2.97;;;14.20;99.90;;;;;;5069663;28;20454;-71
2022/07/05 04:13:48;;;;;;;2.67;2.47;;;14.20;99.90;;;;;;5068898;28;20455;-71
2022/07/05 04:16:16;;;;;;;3.20;2.60;;;14.30;99.90;;;;;;5068858;28;20833;-70
2022/07/05 04:18:43;;;;;;;4.33;2.10;;;14.30;99.90;;;;;;5069298;28;20451;-70
2022/07/05 04:21:10;;;;;;;3.00;2.40;;;14.30;99.90;;;;;;5069790;28;20466;-70
2022/07/05 04:23:37;;;;;;;3.10;2.67;;;14.30;99.90;;;;;;5070045;28;20454;-70
2022/07/05 04:26:03;;;;;;;2.63;2.23;;;14.30;99.90;;;;;;5069722;28;20993;-71
2022/07/05 04:28:30;;;;;;;2.40;2.20;;;14.30;99.90;;;;;;5069076;28;20478;-71
2022/07/05 04:30:57;;;;;;;2.50;2.30;;;14.40;99.90;;;;;;5069652;28;20941;-70
2022/07/05 04:33:25;;;;;;;2.77;2.57;;;14.40;99.90;;;;;;5069216;28;20462;-70
2022/07/05 04:35:52;;;;;;;2.67;2.47;;;14.40;99.90;;;;;;5070220;28;20482;-70
2022/07/05 04:38:19;;;;;;;3.67;2.60;;;14.40;99.90;;;;;;5069966;28;20450;-70
2022/07/05 04:40:45;;;;;;;2.50;2.30;;;14.50;99.90;;;;;;5069593;28;20458;-71
2022/07/05 04:43:12;;;;;;;4.63;2.30;;;14.50;99.90;;;;;;5069829;28;20989;-71
2022/07/05 04:45:39;;;;;;;2.73;2.53;;;14.60;99.90;;;;;;5070232;28;20478;-69
2022/07/05 04:48:06;;;;;;;2.73;2.30;;;14.60;99.90;;;;;;5073792;28;20639;-70
2022/07/05 04:50:34;;;;;;;2.83;2.63;;;14.70;99.90;;;;;;5073351;28;20458;-70
2022/07/05 04:53:01;;;;;;;2.80;2.40;;;14.80;99.90;;;;;;5073805;28;20830;-69
2022/07/05 04:55:27;;;;;;;2.67;2.33;;;14.90;99.90;;;;;;5073509;28;20493;-70
2022/07/05 04:57:54;;;;;;;3.00;2.33;;;15.00;99.90;;;;;;5073599;28;20458;-70
2022/07/05 05:00:21;;;;;;;3.73;3.43;;;15.00;99.90;;;;;;5072786;28;20466;-71
2022/07/05 05:02:47;;;;;;;4.13;2.60;;;15.10;99.90;;;;;;5073796;28;20461;-71
2022/07/05 05:05:14;;;;;;;4.93;2.60;;;15.10;99.90;;;;;;5070386;28;20481;-71
2022/07/05 05:07:44;;;;;;;9.43;2.67;;;15.20;99.90;;;;;;5070949;28;20459;-70
2022/07/05 05:10:11;;;;;;;2.90;2.70;;;15.30;99.90;;;;;;5070187;28;20493;-71
2022/07/05 05:12:38;;;;;;;2.73;2.53;;;15.40;99.90;;;;;;5070535;28;20466;-71
2022/07/05 05:15:08;;;;;;;2.33;2.13;;;15.50;99.90;;;;;;5071050;28;20493;-70
2022/07/05 05:17:36;;;;;;;2.40;2.20;;;15.60;99.90;;;;;;5070713;28;20466;-71
2022/07/05 05:20:05;;;;;;;3.63;2.00;;;15.70;99.90;;;;;;5070215;28;20486;-71
2022/07/05 05:22:32;;;;;;;4.70;2.30;;;15.80;99.90;;;;;;5070627;28;20462;-71
2022/07/05 05:25:00;;;;;;;3.50;2.67;;;15.90;99.90;;;;;;5071106;28;20513;-71
2022/07/05 05:27:27;;;;;;;5.70;2.87;;;16.10;99.90;;;;;;5070913;28;20462;-71
2022/07/05 05:29:54;;;;;;;4.00;1.80;;;16.20;99.90;;;;;;5070458;28;20482;-72
2022/07/05 05:32:20;;;;;;;3.20;2.30;;;16.20;99.90;;;;;;5070896;28;20462;-71
2022/07/05 05:34:47;;;;;;;4.00;2.40;;;16.30;99.90;;;;;;5071193;28;20485;-71
2022/07/05 05:37:14;;;;;;;3.20;2.30;;;16.50;99.90;;;;;;5071104;28;20835;-70
2022/07/05 05:39:41;;;;;;;3.40;2.40;;;16.60;99.90;;;;;;5070017;28;20524;-70
2022/07/05 05:42:09;;;;;;;5.53;2.80;;;16.70;99.90;;;;;;5070334;28;20462;-71
2022/07/05 05:44:36;;;;;;;3.70;2.63;;;16.80;99.90;;;;;;5070396;28;20479;-71
2022/07/05 05:47:03;;;;;;;6.20;4.03;;;16.90;99.90;;;;;;5070479;28;20470;-71
2022/07/05 05:49:29;;;;;;;3.57;2.47;;;17.00;99.90;;;;;;5069638;28;20486;-71
2022/07/05 05:51:56;;;;;;;3.60;2.20;;;17.10;99.90;;;;;;5069941;28;20459;-72
2022/07/05 05:54:23;;;;;;;2.43;1.70;;;17.10;99.90;;;;;;5069830;28;20505;-71
2022/07/05 05:56:49;;;;;;;2.80;2.07;;;17.20;99.90;;;;;;5072076;28;20466;-71
2022/07/05 05:59:18;;;;;;;2.03;1.80;;;17.30;99.90;;;;;;5071660;28;20454;-71
2022/07/05 06:01:44;;;;;;;2.90;1.73;;;17.40;99.90;;;;;;5071505;28;20524;-72
2022/07/05 06:04:11;;;;;;;2.23;2.03;;;17.40;99.90;;;;;;5072753;28;20494;-71
2022/07/05 06:06:38;;;;;;;4.30;2.77;;;17.50;99.90;;;;;;5072588;28;20827;-71
2022/07/05 06:09:05;;;;;;;2.20;1.90;;;17.60;99.90;;;;;;5072453;28;20493;-72
2022/07/05 06:11:31;;;;;;;3.73;1.50;;;17.70;99.90;;;;;;5072361;28;20462;-72
2022/07/05 06:13:58;;;;;;;2.77;1.57;;;17.80;99.90;;;;;;5072675;28;20458;-71
2022/07/05 06:16:26;;;;;;;1.77;1.67;;;17.80;99.90;;;;;;5072642;28;20454;-71
2022/07/05 06:18:53;;;;;;;1.80;1.60;;;17.90;99.90;;;;;;5072417;28;20455;-71
2022/07/05 06:21:19;;;;;;;2.00;1.80;;;17.90;99.90;;;;;;5072195;28;20744;-71
2022/07/05 06:23:46;;;;;;;2.20;1.87;;;18.00;99.90;;;;;;5072500;28;20466;-71
2022/07/05 06:26:13;;;;;;;4.33;1.70;;;18.00;99.90;;;;;;5072633;28;20818;-71
2022/07/05 06:28:39;;;;;;;1.97;1.77;;;18.10;99.90;;;;;;5071895;28;20465;-71
2022/07/05 06:31:06;;;;;;;1.80;1.47;;;18.20;99.90;;;;;;5071322;28;20462;-70
2022/07/05 06:33:34;;;;;;;1.70;1.50;;;18.20;99.90;;;;;;5072143;28;20977;-71
2022/07/05 06:36:01;;;;;;;2.07;1.80;;;18.30;99.90;;;;;;5071993;28;20483;-71
2022/07/05 06:38:27;;;;;;;1.93;1.67;;;18.40;99.90;;;;;;5071839;28;20458;-70
2022/07/05 06:40:56;;;;;;;1.87;1.57;;;18.50;99.90;;;;;;5071147;28;20462;-71
2022/07/05 06:43:23;;;;;;;2.13;1.70;;;18.60;99.90;;;;;;5071831;28;20462;-70
2022/07/05 06:45:50;;;;;;;3.63;1.97;;;18.70;99.90;;;;;;5071327;28;20852;-71
2022/07/05 06:48:16;;;;;;;3.30;2.00;;;18.80;99.90;;;;;;5071504;28;20498;-70
2022/07/05 06:50:45;;;;;;;3.07;2.17;;;18.90;99.90;;;;;;5070822;28;20486;-70
2022/07/05 06:53:12;;;;;;;2.23;1.70;;;19.00;99.90;;;;;;5071649;28;20466;-70
2022/07/05 06:55:44;;;;;;;4.17;1.63;;;19.00;99.90;;;;;;5071267;28;20479;-70
2022/07/05 06:58:10;;;;;;;2.30;2.07;;;19.10;99.90;;;;;;5071246;28;20494;-71
2022/07/05 07:00:38;;;;;;;2.53;1.73;;;19.20;99.90;;;;;;5070569;28;20458;-70
2022/07/05 07:03:04;;;;;;;1.87;1.70;;;19.30;99.90;;;;;;5071552;28;20458;-70
2022/07/05 07:05:31;;;;;;;1.80;1.70;;;19.30;99.90;;;;;;5071220;28;20515;-70
2022/07/05 07:10:43;;;;;;;2.93;1.83;;;19.40;99.90;;;;;;5070474;28;20850;-70
2022/07/05 07:13:10;;;;;;;2.43;1.60;;;19.40;99.90;;;;;;5071849;28;20466;-70
2022/07/05 07:15:43;;;;;;;3.73;2.70;;;19.50;99.90;;;;;;5068009;28;20820;-70
2022/07/05 07:18:10;;;;;;;1.80;1.70;;;19.50;99.90;;;;;;5071856;28;20515;-71
2022/07/05 07:20:36;;;;;;;2.97;1.57;;;19.70;99.90;;;;;;5090050;28;20458;-70
2022/07/05 07:23:11;;;;;;;2.73;1.67;;;19.70;99.90;;;;;;5090619;28;20947;-69
2022/07/05 07:25:37;;;;;;;2.03;1.83;;;19.80;99.90;;;;;;5090386;28;20476;-69
2022/07/05 07:28:05;;;;;;;2.13;1.77;;;19.90;99.90;;;;;;5090439;28;20971;-70
2022/07/05 07:30:33;;;;;;;7.00;1.80;;;20.00;99.90;;;;;;5089396;28;21004;-70
2022/07/05 07:33:00;;;;;;;3.00;1.60;;;20.10;99.90;;;;;;5090753;28;20461;-69
2022/07/05 07:35:27;;;;;;;2.37;1.57;;;20.20;99.90;;;;;;5090276;28;20488;-70
2022/07/05 07:37:56;;;;;;;1.50;1.40;;;20.30;99.90;;;;;;5089781;28;20462;-70
2022/07/05 07:40:25;;;;;;;2.70;1.83;;;20.30;99.90;;;;;;5089515;28;20449;-71
2022/07/05 07:42:51;;;;;;;3.30;1.70;;;20.40;99.90;;;;;;5090365;28;20493;-70
2022/07/05 07:45:18;;;;;;;2.93;1.60;;;20.50;99.90;;;;;;5090379;28;20488;-71
2022/07/05 07:47:45;;;;;;;1.47;1.23;;;20.50;99.90;;;;;;5090019;28;20465;-70
2022/07/05 07:50:12;;;;;;;1.93;1.70;;;20.50;99.90;;;;;;5089766;28;20485;-70
2022/07/05 07:52:40;;;;;;;3.37;1.70;;;20.60;99.90;;;;;;5089198;28;20458;-69
2022/07/05 07:55:07;;;;;;;2.07;1.50;;;20.70;99.90;;;;;;5090016;28;21041;-69
2022/07/05 07:57:35;;;;;;;1.50;1.40;;;20.80;99.90;;;;;;5090114;28;20501;-69
2022/07/05 08:00:03;;;;;;;2.23;1.60;;;20.80;99.90;;;;;;5089212;28;20458;-69
2022/07/05 08:02:29;;;;;;;2.13;1.80;;;20.80;99.90;;;;;;5089844;28;20461;-69
2022/07/05 08:04:57;;;;;;;2.17;1.30;;;21.00;99.90;;;;;;5089262;28;20492;-69
2022/07/05 08:07:25;;;;;;;1.80;1.50;;;21.00;99.90;;;;;;5089851;28;20889;-69
2022/07/05 08:09:52;;;;;;;2.57;1.63;;;21.20;99.90;;;;;;5071165;28;20511;-70
2022/07/05 08:12:19;;;;;;;2.47;1.30;;;21.40;99.90;;;;;;5065920;28;20906;-69
2022/07/05 08:14:47;;;;;;;2.10;1.27;;;21.50;99.90;;;;;;5066705;28;20478;-69
2022/07/05 08:17:14;;;;;;;2.77;1.43;;;21.50;99.70;;;;;;5068487;28;20459;-69
2022/07/05 08:22:26;;;;;;;1.67;1.53;;;21.70;99.90;;;;;;5072119;28;20461;-69
2022/07/05 08:24:52;;;;;;;1.40;1.30;;;21.80;99.90;;;;;;5176232;22;21065;-67
2022/07/05 08:27:19;;;;;;;2.23;1.80;;;21.90;99.90;;;;;;5112418;28;20463;-67
2022/07/05 08:29:47;;;;;;;2.90;1.50;;;22.00;99.90;;;;;;5110508;28;20472;-66
2022/07/05 08:32:14;;;;;;;2.00;1.33;;;22.10;99.90;;;;;;5092629;28;20466;-69
2022/07/05 08:34:41;;;;;;;1.50;1.40;;;22.20;99.90;;;;;;5092707;28;20943;-69
2022/07/05 08:37:08;;;;;;;3.07;1.50;;;22.20;99.90;;;;;;5092420;28;20469;-68
2022/07/05 08:39:35;;;;;;;1.70;1.50;;;22.30;99.90;;;;;;5091385;28;20849;-68
2022/07/05 08:42:02;;;;;;;2.57;1.63;;;22.30;99.90;;;;;;5092810;28;20467;-67
2022/07/05 08:44:32;;;;;;;2.10;1.37;;;22.50;99.90;;;;;;5092858;28;20488;-67
2022/07/05 08:47:03;;;;;;;2.80;1.80;;;22.60;99.90;;;;;;5093536;28;20471;-69
2022/07/05 08:49:33;;;;;;;3.27;1.40;;;22.70;99.90;;;;;;5092253;28;20482;-69
2022/07/05 08:52:03;;;;;;;1.80;1.50;;;22.80;99.90;;;;;;5092117;28;20465;-69
2022/07/05 08:54:31;;;;;;;2.27;1.90;;;23.00;99.90;;;;;;5093139;28;20557;-69
2022/07/05 08:56:57;;;;;;;1.30;1.20;;;23.00;99.90;;;;;;5092802;28;20472;-69
2022/07/05 08:59:24;;;;;;;2.33;1.43;;;23.10;99.90;;;;;;5110656;28;20879;-69
2022/07/05 09:01:51;;;;;;;1.53;1.40;;;23.10;99.90;;;;;;5112572;28;20466;-69
2022/07/05 09:04:22;;;;;;;2.50;1.60;;;23.20;99.90;;;;;;5112121;28;20853;-69
2022/07/05 09:06:50;;;;;;;3.00;1.60;;;23.30;99.90;;;;;;5112687;28;20467;-69
2022/07/05 09:09:19;;;;;;;1.90;1.63;;;23.40;99.90;;;;;;5112894;28;20525;-69
2022/07/05 09:11:47;;;;;;;4.60;1.40;;;23.50;99.90;;;;;;5111992;28;20460;-69
2022/07/05 09:14:21;;;;;;;5.37;1.67;;;23.50;99.90;;;;;;5111789;28;20478;-68
2022/07/05 09:16:48;;;;;;;1.77;1.40;;;23.60;99.90;;;;;;5111691;28;20517;-69
2022/07/05 09:19:15;;;;;;;1.80;1.40;;;23.70;99.50;;;;;;5106343;28;20461;-69
2022/07/05 09:21:43;;;;;;;3.13;1.73;;;23.80;99.00;;;;;;5105483;28;20556;-70
2022/07/05 09:24:12;;;;;;;1.93;1.37;;;23.80;99.60;;;;;;5111569;28;20481;-70
2022/07/05 09:26:40;;;;;;;3.13;1.53;;;23.90;99.20;;;;;;5109445;28;20476;-69
2022/07/05 09:29:09;;;;;;;2.33;1.50;;;24.10;99.40;;;;;;5099755;28;20832;-68
2022/07/05 09:31:37;;;;;;;1.90;1.40;;;24.20;99.10;;;;;;5090311;28;20489;-70
2022/07/05 09:34:06;;;;;;;1.97;1.50;;;24.40;99.40;;;;;;5087328;28;20481;-68
2022/07/05 09:36:51;;;;;;;1.93;1.17;;;24.50;99.70;;;;;;5090505;28;21045;-69
2022/07/05 09:39:18;;;;;;;2.20;1.37;;;24.60;97.90;;;;;;5090283;28;20490;-70
2022/07/05 09:41:46;;;;;;;2.23;1.20;;;24.70;97.40;;;;;;5104124;28;20456;-68
2022/07/05 09:44:24;;;;;;;1.97;1.70;;;24.70;98.60;;;;;;5111185;28;20488;-68
2022/07/05 09:46:51;;;;;;;2.00;1.67;;;24.70;98.50;;;;;;5110985;28;20891;-69
2022/07/05 09:49:26;;;;;;;2.60;1.50;;;24.80;97.40;;;;;;5109701;28;20967;-70
2022/07/05 09:51:56;;;;;;;1.70;1.50;;;24.70;95.70;;;;;;5110042;28;20762;-70
2022/07/05 09:54:22;;;;;;;1.93;1.63;;;24.50;97.30;;;;;;5098479;28;20475;-70
2022/07/05 09:56:49;;;;;;;3.00;1.50;;;24.20;97.00;;;;;;5089992;28;20533;-70
2022/07/05 09:59:19;;;;;;;2.67;1.80;;;24.20;97.20;;;;;;5089897;28;20454;-69
2022/07/05 10:01:45;;;;;;;2.17;1.70;;;24.10;96.20;;;;;;5098871;28;20457;-70
2022/07/05 10:04:13;;;;;;;2.70;1.40;;;24.10;96.70;;;;;;5106049;28;20999;-69
2022/07/05 10:06:40;;;;;;;3.00;1.60;;;24.30;97.80;;;;;;5100513;28;20465;-70
2022/07/05 10:09:09;;;;;;;3.03;1.43;;;24.40;95.20;;;;;;5090223;28;20461;-68
2022/07/05 10:11:41;;;;;;;1.87;1.50;;;24.70;96.40;;;;;;5089614;28;20843;-69
2022/07/05 10:14:14;;;;;;;1.60;1.50;;;24.90;97.40;;;;;;5088778;28;21037;-69
2022/07/05 10:16:46;;;;;;;1.40;1.30;;;25.20;97.60;;;;;;5090440;28;20853;-69
2022/07/05 10:19:19;;;;;;;2.00;1.30;;;25.30;91.30;;;;;;5088905;28;20461;-68
2022/07/05 10:21:47;;;;;;;3.93;1.30;;;25.40;95.90;;;;;;5090593;28;20518;-69
2022/07/05 10:24:17;;;;;;;2.37;1.67;;;25.40;95.50;;;;;;5091054;28;20878;-70
2022/07/05 10:26:47;;;;;;;1.70;1.20;;;25.40;96.00;;;;;;5089886;28;20534;-70
2022/07/05 10:29:15;;;;;;;1.93;1.40;;;25.50;95.40;;;;;;5089549;28;20457;-69
2022/07/05 10:31:44;;;;;;;2.63;1.50;;;25.70;96.10;;;;;;5088780;28;20489;-68
2022/07/05 10:34:11;;;;;;;2.20;1.53;;;25.70;96.30;;;;;;5087375;28;20470;-69
2022/07/05 10:36:40;;;;;;;1.70;1.60;;;25.70;95.20;;;;;;5090615;28;20461;-69
2022/07/05 10:39:08;;;;;;;2.30;1.60;;;25.80;93.00;;;;;;5090353;28;20469;-69
2022/07/05 10:41:39;;;;;;;2.00;1.80;;;25.80;94.80;;;;;;5089280;28;20453;-69
2022/07/05 10:44:06;;;;;;;2.47;1.00;;;25.90;95.20;;;;;;5090026;28;20504;-70
2022/07/05 10:46:37;;;;;;;4.87;1.73;;;26.00;94.40;;;;;;5091129;28;20964;-69
2022/07/05 10:49:16;;;;;;;3.23;1.40;;;26.20;96.50;;;;;;5089116;28;20465;-68
2022/07/05 10:51:43;;;;;;;2.30;1.57;;;26.30;95.80;;;;;;5090089;28;20921;-70
2022/07/05 10:54:10;;;;;;;1.83;1.47;;;26.20;95.40;;;;;;5090024;28;20481;-69
2022/07/05 10:56:39;;;;;;;2.63;1.60;;;25.90;94.20;;;;;;5090434;28;20462;-70
2022/07/05 10:59:09;;;;;;;1.80;1.50;;;25.40;94.00;;;;;;5090750;28;20891;-69
2022/07/05 11:01:40;;;;;;;2.03;1.40;;;25.30;95.10;;;;;;5089505;28;20972;-70
2022/07/05 11:04:35;;;;;;;3.17;1.70;;;25.50;95.00;;;;;;5087033;28;20481;-69
2022/07/05 11:07:02;;;;;;;3.00;1.60;;;25.80;94.30;;;;;;5090066;28;20665;-69
2022/07/05 11:09:32;;;;;;;3.40;1.70;;;26.00;96.40;;;;;;5121796;22;20487;-88
2022/07/05 11:12:12;;;;;;;1.67;1.57;;;26.30;95.90;;;;;;5101268;28;20491;-88
2022/07/05 11:14:45;;;;;;;1.90;1.30;;;26.50;94.20;;;;;;5112031;28;20854;-88
2022/07/05 11:17:16;;;;;;;2.67;1.70;;;26.60;94.90;;;;;;5111999;28;20441;-87
2022/07/05 11:20:19;;;;;;;1.80;1.70;;;26.80;95.10;;;;;;5104235;28;20477;-89
2022/07/05 11:23:10;;;;;;;1.60;1.50;;;27.00;96.00;;;;;;5092556;28;20479;-88
2022/07/05 11:25:39;;;;;;;5.53;1.73;;;27.10;94.20;;;;;;5092341;28;20461;-89
2022/07/05 11:28:13;;;;;;;3.10;1.23;;;27.20;94.90;;;;;;5092402;28;20557;-87
2022/07/05 11:30:58;;;;;;;1.80;1.47;;;27.40;94.60;;;;;;5091627;28;20486;-88
2022/07/05 11:33:39;;;;;;;5.37;1.50;;;27.40;93.70;;;;;;5090324;28;20882;-88
2022/07/05 11:36:08;;;;;;;3.80;1.30;;;27.50;93.00;;;;;;5091820;28;20459;-87
2022/07/05 11:38:35;;;;;;;1.67;1.47;;;27.70;93.40;;;;;;5092477;28;20478;-89
2022/07/05 11:41:15;;;;;;;2.90;1.40;;;27.80;93.40;;;;;;5104484;28;20451;-89
2022/07/05 11:43:43;;;;;;;2.43;1.40;;;27.50;92.40;;;;;;5093292;28;20534;-88
2022/07/05 11:46:10;;;;;;;3.93;2.10;;;27.40;94.20;;;;;;5093341;28;20462;-88
2022/07/05 11:48:39;;;;;;;1.50;1.40;;;27.10;92.70;;;;;;5105453;28;20484;-86
2022/07/05 11:51:15;;;;;;;2.50;1.70;;;26.70;92.90;;;;;;5112661;28;20847;-88
2022/07/05 11:53:43;;;;;;;2.93;1.60;;;26.20;92.80;;;;;;5111834;28;20464;-89
2022/07/05 11:56:11;;;;;;;2.10;1.53;;;26.00;93.70;;;;;;5097429;28;20971;-88
2022/07/05 11:58:47;;;;;;;1.77;1.67;;;26.10;93.90;;;;;;5099070;28;20478;-92
2022/07/05 12:01:15;;;;;;;1.70;1.60;;;26.30;94.00;;;;;;5103084;28;20479;-89
2022/07/05 12:03:52;;;;;;;1.97;1.53;;;26.70;95.20;;;;;;5111343;28;20970;-89
2022/07/05 12:06:20;;;;;;;2.40;1.50;;;27.00;94.70;;;;;;5114245;28;20451;-91
2022/07/05 12:08:47;;;;;;;4.63;1.33;;;27.20;93.90;;;;;;5111321;28;20488;-91
2022/07/05 12:13:58;;;;;;;1.70;1.57;;;27.40;93.80;;;;;;5119354;28;20923;-89
2022/07/05 12:17:00;;;;;;;2.00;1.60;;;27.60;91.90;;;;;;5110109;28;20473;-89
2022/07/05 12:19:28;;;;;;;3.67;1.43;;;27.70;92.30;;;;;;5110034;28;20477;-89
2022/07/05 12:21:58;;;;;;;2.73;1.70;;;27.80;92.30;;;;;;5112422;28;20463;-92
2022/07/05 12:24:25;;;;;;;2.67;1.70;;;28.00;92.80;;;;;;5112656;28;20467;-91
2022/07/05 12:26:53;;;;;;;3.33;1.70;;;28.10;91.40;;;;;;5113931;28;20832;-94
2022/07/05 12:29:21;;;;;;;2.27;1.80;;;27.70;92.50;;;;;;5117575;28;20468;-92
2022/07/05 12:32:01;;;;;;;1.57;1.47;;;27.40;92.80;;;;;;5113172;28;20490;-93
2022/07/05 12:34:30;;;;;;;1.57;1.47;;;27.40;93.40;;;;;;5133409;28;20463;-93
2022/07/05 12:36:57;;;;;;;3.60;1.50;;;27.40;94.20;;;;;;5119107;28;20806;-92
2022/07/05 12:39:25;;;;;;;1.93;1.50;;;27.60;94.00;;;;;;5112326;28;21019;-91
2022/07/05 12:41:51;;;;;;;1.73;1.63;;;27.80;93.50;;;;;;5115557;28;20461;-90
2022/07/05 12:44:22;;;;;;;1.70;1.50;;;28.00;94.70;;;;;;5116144;28;20465;-91
2022/07/05 12:46:50;;;;;;;1.47;1.37;;;28.20;93.90;;;;;;5114153;28;20466;-90
2022/07/05 12:49:17;;;;;;;5.80;1.70;;;28.20;94.00;;;;;;5114490;28;20478;-90
2022/07/05 12:51:46;;;;;;;2.03;1.17;;;28.10;92.30;;;;;;5119880;28;20485;-91
2022/07/05 13:00:06;;;;;;;2.00;1.80;;;27.30;92.30;;;;;;5052160;28;20876;-91
2022/07/05 13:02:37;;;;;;;2.23;2.03;;;27.10;93.30;;;;;;5089610;28;20457;-91
2022/07/05 13:05:05;;;;;;;1.87;1.30;;;27.10;93.10;;;;;;5116209;28;21014;-92
2022/07/05 13:07:34;;;;;;;2.67;1.70;;;27.20;93.60;;;;;;5116076;28;20472;-91